WJA231 CYWG-CYYC
Flight info
| Callsign | WJA231 |
|---|---|
| Flight time | 1h 45m |
| Altitude | 38000 |
| Route | LIVBI DCT DUKPO DCT FAREN DCT GUDOG DCT PIKLA DCT BIRKO BIRKO6 |
| Aircraft | B738/M-SDE2E3FGHIRWXY/LB1 |
Departure
| Time | 2026-05-06 22:38 |
|---|---|
| Airport | Winnipeg / James Armstrong Richardson International Airport (CYWG) |
Arrival
| Time | 2026-05-07 00:24 |
|---|---|
| Airport | Calgary International Airport (CYYC) |
| Time | Latitude | Longitude | Altitude | Speed | Heading |
|---|---|---|---|---|---|
| 2026-05-06 22:16 | 49.90673 | -97.22618 | 785 ft | 0 kts | 167° |
| 2026-05-06 22:24 | 49.90684 | -97.22622 | 785 ft | 3 kts | 168° |
| 2026-05-06 22:24 | 49.90704 | -97.22628 | 785 ft | 3 kts | 170° |
| 2026-05-06 22:24 | 49.90722 | -97.22632 | 785 ft | 2 kts | 169° |
| 2026-05-06 22:25 | 49.90732 | -97.22635 | 785 ft | 1 kts | 168° |
| 2026-05-06 22:25 | 49.90741 | -97.22638 | 785 ft | 1 kts | 168° |
| 2026-05-06 22:25 | 49.90748 | -97.22641 | 785 ft | 0 kts | 168° |
| 2026-05-06 22:28 | 49.90743 | -97.22647 | 785 ft | 2 kts | 222° |
| 2026-05-06 22:28 | 49.90741 | -97.22692 | 785 ft | 6 kts | 267° |
| 2026-05-06 22:28 | 49.90731 | -97.22762 | 785 ft | 7 kts | 248° |
| 2026-05-06 22:28 | 49.90722 | -97.22836 | 785 ft | 7 kts | 262° |
| 2026-05-06 22:29 | 49.90714 | -97.22913 | 785 ft | 8 kts | 259° |
| 2026-05-06 22:29 | 49.90701 | -97.23014 | 785 ft | 11 kts | 258° |
| 2026-05-06 22:29 | 49.90681 | -97.23158 | 785 ft | 16 kts | 258° |
| 2026-05-06 22:29 | 49.90639 | -97.23309 | 785 ft | 17 kts | 210° |
| 2026-05-06 22:30 | 49.90524 | -97.23372 | 785 ft | 13 kts | 198° |
| 2026-05-06 22:30 | 49.90439 | -97.23418 | 785 ft | 14 kts | 199° |
| 2026-05-06 22:30 | 49.90347 | -97.23467 | 785 ft | 14 kts | 195° |
| 2026-05-06 22:30 | 49.90261 | -97.23391 | 785 ft | 16 kts | 138° |
| 2026-05-06 22:31 | 49.90170 | -97.23266 | 785 ft | 19 kts | 137° |
| 2026-05-06 22:31 | 49.90067 | -97.23122 | 785 ft | 21 kts | 138° |
| 2026-05-06 22:31 | 49.89950 | -97.22964 | 785 ft | 23 kts | 139° |
| 2026-05-06 22:31 | 49.89837 | -97.22774 | 785 ft | 22 kts | 129° |
| 2026-05-06 22:32 | 49.89745 | -97.22607 | 785 ft | 12 kts | 130° |
| 2026-05-06 22:32 | 49.89676 | -97.22545 | 785 ft | 13 kts | 206° |
| 2026-05-06 22:32 | 49.89606 | -97.22658 | 785 ft | 16 kts | 229° |
| 2026-05-06 22:32 | 49.89549 | -97.22760 | 784 ft | 12 kts | 232° |
| 2026-05-06 22:33 | 49.89559 | -97.22845 | 784 ft | 0 kts | 317° |
| 2026-05-06 22:37 | 49.89572 | -97.22863 | 784 ft | 15 kts | 319° |
| 2026-05-06 22:38 | 49.89895 | -97.23308 | 785 ft | 108 kts | 319° |
| 2026-05-06 22:38 | 49.90550 | -97.24195 | 964 ft | 162 kts | 321° |
| 2026-05-06 22:38 | 49.91480 | -97.25442 | 1848 ft | 190 kts | 318° |
| 2026-05-06 22:38 | 49.92504 | -97.26930 | 2719 ft | 211 kts | 316° |
| 2026-05-06 22:39 | 49.93602 | -97.28592 | 3593 ft | 228 kts | 315° |
| 2026-05-06 22:39 | 49.94667 | -97.30240 | 5235 ft | 208 kts | 315° |
| 2026-05-06 22:39 | 49.95506 | -97.32082 | 6278 ft | 223 kts | 289° |
| 2026-05-06 22:39 | 49.95539 | -97.34669 | 6840 ft | 257 kts | 262° |
| 2026-05-06 22:40 | 49.95212 | -97.37421 | 8156 ft | 260 kts | 263° |
| 2026-05-06 22:40 | 49.95009 | -97.39252 | 9072 ft | 261 kts | 264° |
| 2026-05-06 22:40 | 49.94720 | -97.42057 | 10349 ft | 266 kts | 265° |
| 2026-05-06 22:40 | 49.94442 | -97.45014 | 11037 ft | 291 kts | 265° |
| 2026-05-06 22:41 | 49.93864 | -97.51766 | 12000 ft | 329 kts | 265° |
| 2026-05-06 22:41 | 49.93572 | -97.55320 | 12780 ft | 334 kts | 266° |
| 2026-05-06 22:41 | 49.93279 | -97.58924 | 13605 ft | 339 kts | 266° |
| 2026-05-06 22:42 | 49.92986 | -97.62584 | 14326 ft | 344 kts | 266° |
| 2026-05-06 22:42 | 49.92690 | -97.66296 | 15047 ft | 348 kts | 266° |
| 2026-05-06 22:42 | 49.92389 | -97.70047 | 15770 ft | 352 kts | 266° |
| 2026-05-06 22:42 | 49.92093 | -97.73847 | 16480 ft | 356 kts | 268° |
| 2026-05-06 22:43 | 49.92089 | -97.77689 | 17161 ft | 358 kts | 278° |
| 2026-05-06 22:43 | 49.92499 | -97.81510 | 17863 ft | 361 kts | 283° |
| 2026-05-06 22:43 | 49.92987 | -97.85302 | 18521 ft | 365 kts | 283° |
| 2026-05-06 22:43 | 49.93496 | -97.89184 | 19131 ft | 369 kts | 283° |
| 2026-05-06 22:44 | 49.94006 | -97.93101 | 19759 ft | 372 kts | 283° |
| 2026-05-06 22:44 | 49.94515 | -97.97062 | 20380 ft | 376 kts | 282° |
| 2026-05-06 22:44 | 49.94996 | -98.00855 | 20959 ft | 379 kts | 282° |
| 2026-05-06 22:44 | 49.95505 | -98.04912 | 21554 ft | 383 kts | 282° |
| 2026-05-06 22:45 | 49.96010 | -98.08976 | 22147 ft | 386 kts | 282° |
| 2026-05-06 22:45 | 49.96519 | -98.13094 | 22748 ft | 389 kts | 281° |
| 2026-05-06 22:45 | 49.97030 | -98.17241 | 23298 ft | 393 kts | 281° |
| 2026-05-06 22:45 | 49.97543 | -98.21428 | 23852 ft | 395 kts | 281° |
| 2026-05-06 22:46 | 49.98057 | -98.25635 | 24308 ft | 398 kts | 281° |
| 2026-05-06 22:46 | 49.98574 | -98.29881 | 24745 ft | 402 kts | 281° |
| 2026-05-06 22:46 | 49.99093 | -98.34152 | 25259 ft | 403 kts | 281° |
| 2026-05-06 22:46 | 49.99613 | -98.38447 | 25672 ft | 407 kts | 281° |
| 2026-05-06 22:47 | 50.00128 | -98.42717 | 26110 ft | 409 kts | 281° |
| 2026-05-06 22:47 | 50.00653 | -98.47084 | 26521 ft | 412 kts | 281° |
| 2026-05-06 22:47 | 50.01181 | -98.51486 | 26869 ft | 417 kts | 281° |
| 2026-05-06 22:47 | 50.01711 | -98.55924 | 27340 ft | 418 kts | 281° |
| 2026-05-06 22:48 | 50.02241 | -98.60380 | 27723 ft | 421 kts | 281° |
| 2026-05-06 22:48 | 50.02775 | -98.64877 | 28041 ft | 426 kts | 281° |
| 2026-05-06 22:48 | 50.03313 | -98.69430 | 28407 ft | 429 kts | 281° |
| 2026-05-06 22:48 | 50.03851 | -98.73995 | 28853 ft | 430 kts | 281° |
| 2026-05-06 22:49 | 50.04382 | -98.78518 | 29243 ft | 432 kts | 281° |
| 2026-05-06 22:49 | 50.04922 | -98.83135 | 29522 ft | 436 kts | 281° |
| 2026-05-06 22:49 | 50.05459 | -98.87745 | 29868 ft | 438 kts | 281° |
| 2026-05-06 22:49 | 50.06002 | -98.92415 | 30250 ft | 439 kts | 281° |
| 2026-05-06 22:50 | 50.06544 | -98.97098 | 30609 ft | 439 kts | 281° |
| 2026-05-06 22:50 | 50.07065 | -99.01612 | 30957 ft | 439 kts | 281° |
| 2026-05-06 22:50 | 50.07602 | -99.06290 | 31287 ft | 440 kts | 282° |
| 2026-05-06 22:50 | 50.08137 | -99.10977 | 31644 ft | 439 kts | 282° |
| 2026-05-06 22:51 | 50.08669 | -99.15655 | 32029 ft | 439 kts | 282° |
| 2026-05-06 22:51 | 50.09198 | -99.20326 | 32396 ft | 438 kts | 282° |
| 2026-05-06 22:51 | 50.09725 | -99.24990 | 32796 ft | 437 kts | 283° |
| 2026-05-06 22:51 | 50.10250 | -99.29649 | 33140 ft | 437 kts | 283° |
| 2026-05-06 22:52 | 50.10772 | -99.34307 | 33476 ft | 437 kts | 283° |
| 2026-05-06 22:52 | 50.11294 | -99.38969 | 33834 ft | 436 kts | 283° |
| 2026-05-06 22:52 | 50.11812 | -99.43627 | 34168 ft | 435 kts | 283° |
| 2026-05-06 22:52 | 50.12320 | -99.48212 | 34437 ft | 435 kts | 283° |
| 2026-05-06 22:53 | 50.12835 | -99.52867 | 34696 ft | 435 kts | 283° |
| 2026-05-06 22:53 | 50.13347 | -99.57518 | 34959 ft | 435 kts | 283° |
| 2026-05-06 22:53 | 50.13857 | -99.62170 | 35236 ft | 435 kts | 283° |
| 2026-05-06 22:53 | 50.14364 | -99.66811 | 35479 ft | 434 kts | 283° |
| 2026-05-06 22:54 | 50.14869 | -99.71457 | 35808 ft | 433 kts | 283° |
| 2026-05-06 22:54 | 50.15370 | -99.76081 | 36086 ft | 432 kts | 283° |
| 2026-05-06 22:54 | 50.15871 | -99.80709 | 36303 ft | 433 kts | 283° |
| 2026-05-06 22:54 | 50.16370 | -99.85345 | 36527 ft | 433 kts | 283° |
| 2026-05-06 22:55 | 50.16952 | -99.89935 | 36779 ft | 431 kts | 287° |
| 2026-05-06 22:55 | 50.17720 | -99.94447 | 37029 ft | 430 kts | 289° |
| 2026-05-06 22:55 | 50.18547 | -99.98938 | 37279 ft | 429 kts | 289° |
| 2026-05-06 22:55 | 50.19357 | -100.03247 | 37519 ft | 429 kts | 289° |
| 2026-05-06 22:56 | 50.20193 | -100.07711 | 37740 ft | 429 kts | 289° |
| 2026-05-06 22:56 | 50.21022 | -100.12191 | 37969 ft | 429 kts | 289° |
| 2026-05-06 22:56 | 50.21842 | -100.16677 | 37984 ft | 432 kts | 289° |
| 2026-05-06 22:57 | 50.23465 | -100.25709 | 38008 ft | 430 kts | 289° |
| 2026-05-06 22:57 | 50.25042 | -100.34610 | 38019 ft | 426 kts | 289° |
| 2026-05-06 22:58 | 50.26610 | -100.43506 | 38020 ft | 423 kts | 289° |
| 2026-05-06 22:58 | 50.28163 | -100.52358 | 38023 ft | 422 kts | 289° |
| 2026-05-06 22:59 | 50.29709 | -100.61203 | 38026 ft | 421 kts | 289° |
| 2026-05-06 22:59 | 50.31247 | -100.70051 | 38024 ft | 422 kts | 289° |
| 2026-05-06 23:00 | 50.32782 | -100.78927 | 38030 ft | 423 kts | 289° |
| 2026-05-06 23:00 | 50.34315 | -100.87837 | 38035 ft | 424 kts | 289° |
| 2026-05-06 23:01 | 50.35847 | -100.96781 | 38038 ft | 426 kts | 289° |
| 2026-05-06 23:01 | 50.37337 | -101.05532 | 38035 ft | 428 kts | 289° |
| 2026-05-06 23:02 | 50.38864 | -101.14546 | 38034 ft | 429 kts | 289° |
| 2026-05-06 23:02 | 50.40390 | -101.23600 | 38026 ft | 429 kts | 289° |
| 2026-05-06 23:03 | 50.41903 | -101.32627 | 38037 ft | 428 kts | 289° |
| 2026-05-06 23:03 | 50.43410 | -101.41670 | 38041 ft | 428 kts | 289° |
| 2026-05-06 23:04 | 50.44901 | -101.50656 | 38033 ft | 427 kts | 289° |
| 2026-05-06 23:04 | 50.46386 | -101.59653 | 38037 ft | 425 kts | 289° |
| 2026-05-06 23:05 | 50.47861 | -101.68640 | 38022 ft | 424 kts | 289° |
| 2026-05-06 23:05 | 50.49321 | -101.77585 | 38040 ft | 422 kts | 289° |
| 2026-05-06 23:06 | 50.50770 | -101.86504 | 38035 ft | 421 kts | 289° |
| 2026-05-06 23:06 | 50.52210 | -101.95421 | 38035 ft | 420 kts | 289° |
| 2026-05-06 23:07 | 50.53613 | -102.04145 | 38049 ft | 419 kts | 289° |
| 2026-05-06 23:07 | 50.55035 | -102.13039 | 38031 ft | 419 kts | 289° |
| 2026-05-06 23:08 | 50.56447 | -102.21929 | 38032 ft | 418 kts | 289° |
| 2026-05-06 23:08 | 50.57850 | -102.30797 | 38037 ft | 418 kts | 289° |
| 2026-05-06 23:09 | 50.59246 | -102.39673 | 38037 ft | 418 kts | 289° |
| 2026-05-06 23:09 | 50.60635 | -102.48550 | 38042 ft | 417 kts | 289° |
| 2026-05-06 23:10 | 50.62010 | -102.57382 | 38036 ft | 418 kts | 289° |
| 2026-05-06 23:10 | 50.63386 | -102.66278 | 38043 ft | 418 kts | 289° |
| 2026-05-06 23:11 | 50.64754 | -102.75170 | 38035 ft | 417 kts | 290° |
| 2026-05-06 23:11 | 50.66113 | -102.84053 | 38040 ft | 417 kts | 289° |
| 2026-05-06 23:12 | 50.67467 | -102.92944 | 38044 ft | 417 kts | 289° |
| 2026-05-06 23:12 | 50.68785 | -103.01655 | 38043 ft | 416 kts | 289° |
| 2026-05-06 23:13 | 50.70125 | -103.10558 | 38043 ft | 416 kts | 289° |
| 2026-05-06 23:13 | 50.71447 | -103.19390 | 37991 ft | 416 kts | 290° |
| 2026-05-06 23:14 | 50.72766 | -103.28263 | 38029 ft | 415 kts | 290° |
| 2026-05-06 23:14 | 50.74077 | -103.37120 | 38035 ft | 414 kts | 290° |
| 2026-05-06 23:15 | 50.75380 | -103.45975 | 38038 ft | 413 kts | 289° |
| 2026-05-06 23:15 | 50.76673 | -103.54811 | 38041 ft | 412 kts | 289° |
| 2026-05-06 23:16 | 50.77957 | -103.63635 | 38043 ft | 412 kts | 289° |
| 2026-05-06 23:16 | 50.79235 | -103.72468 | 38041 ft | 412 kts | 289° |
| 2026-05-06 23:17 | 50.80504 | -103.81293 | 38046 ft | 412 kts | 289° |
| 2026-05-06 23:17 | 50.81760 | -103.90075 | 38039 ft | 412 kts | 289° |
| 2026-05-06 23:18 | 50.83018 | -103.98925 | 38043 ft | 412 kts | 289° |
| 2026-05-06 23:18 | 50.84248 | -104.07629 | 38043 ft | 413 kts | 289° |
| 2026-05-06 23:19 | 50.85496 | -104.16511 | 38048 ft | 413 kts | 289° |
| 2026-05-06 23:19 | 50.86736 | -104.25393 | 38027 ft | 413 kts | 289° |
| 2026-05-06 23:20 | 50.87968 | -104.34269 | 38039 ft | 413 kts | 289° |
| 2026-05-06 23:20 | 50.89193 | -104.43145 | 38045 ft | 412 kts | 289° |
| 2026-05-06 23:21 | 50.90401 | -104.51953 | 38047 ft | 411 kts | 289° |
| 2026-05-06 23:21 | 50.91609 | -104.60814 | 38049 ft | 411 kts | 289° |
| 2026-05-06 23:22 | 50.92807 | -104.69660 | 38043 ft | 410 kts | 289° |
| 2026-05-06 23:22 | 50.93999 | -104.78506 | 38021 ft | 409 kts | 289° |
| 2026-05-06 23:23 | 50.95177 | -104.87315 | 38029 ft | 408 kts | 289° |
| 2026-05-06 23:23 | 50.96348 | -104.96114 | 38037 ft | 407 kts | 289° |
| 2026-05-06 23:24 | 50.97488 | -105.04732 | 38046 ft | 407 kts | 289° |
| 2026-05-06 23:24 | 50.98637 | -105.13468 | 38045 ft | 406 kts | 289° |
| 2026-05-06 23:25 | 50.99785 | -105.22253 | 38033 ft | 406 kts | 288° |
| 2026-05-06 23:25 | 51.00921 | -105.31007 | 38021 ft | 406 kts | 288° |
| 2026-05-06 23:26 | 51.02053 | -105.39787 | 38038 ft | 405 kts | 288° |
| 2026-05-06 23:26 | 51.03178 | -105.48561 | 38042 ft | 405 kts | 288° |
| 2026-05-06 23:27 | 51.04109 | -105.55860 | 38036 ft | 405 kts | 288° |
| 2026-05-06 23:27 | 51.05222 | -105.64650 | 38036 ft | 406 kts | 288° |
| 2026-05-06 23:28 | 51.06331 | -105.73455 | 38036 ft | 406 kts | 288° |
| 2026-05-06 23:28 | 51.07433 | -105.82261 | 37985 ft | 406 kts | 288° |
| 2026-05-06 23:29 | 51.08524 | -105.91053 | 38024 ft | 406 kts | 288° |
| 2026-05-06 23:29 | 51.09612 | -105.99863 | 38036 ft | 405 kts | 288° |
| 2026-05-06 23:30 | 51.10664 | -106.08437 | 38038 ft | 406 kts | 288° |
| 2026-05-06 23:30 | 51.11738 | -106.17253 | 38040 ft | 406 kts | 288° |
| 2026-05-06 23:31 | 51.12805 | -106.26070 | 38039 ft | 406 kts | 288° |
| 2026-05-06 23:31 | 51.13867 | -106.34902 | 37985 ft | 406 kts | 287° |
| 2026-05-06 23:32 | 51.14919 | -106.43708 | 38023 ft | 404 kts | 287° |
| 2026-05-06 23:32 | 51.15962 | -106.52504 | 38035 ft | 404 kts | 287° |
| 2026-05-06 23:33 | 51.16998 | -106.61297 | 38034 ft | 404 kts | 287° |
| 2026-05-06 23:33 | 51.18028 | -106.70095 | 38039 ft | 403 kts | 287° |
| 2026-05-06 23:34 | 51.19044 | -106.78836 | 38029 ft | 403 kts | 287° |
| 2026-05-06 23:34 | 51.20059 | -106.87630 | 37977 ft | 403 kts | 287° |
| 2026-05-06 23:35 | 51.21066 | -106.96414 | 38019 ft | 402 kts | 287° |
| 2026-05-06 23:35 | 51.22045 | -107.05015 | 38027 ft | 402 kts | 287° |
| 2026-05-06 23:36 | 51.23039 | -107.13807 | 38016 ft | 402 kts | 287° |
| 2026-05-06 23:36 | 51.24024 | -107.22580 | 38021 ft | 402 kts | 287° |
| 2026-05-06 23:37 | 51.25004 | -107.31367 | 38012 ft | 402 kts | 287° |
| 2026-05-06 23:37 | 51.25976 | -107.40152 | 38019 ft | 402 kts | 287° |
| 2026-05-06 23:38 | 51.26933 | -107.48871 | 37999 ft | 401 kts | 287° |
| 2026-05-06 23:38 | 51.27890 | -107.57636 | 38011 ft | 401 kts | 287° |
| 2026-05-06 23:39 | 51.28838 | -107.66396 | 38009 ft | 400 kts | 287° |
| 2026-05-06 23:39 | 51.29781 | -107.75163 | 38007 ft | 400 kts | 287° |
| 2026-05-06 23:40 | 51.30715 | -107.83915 | 38004 ft | 399 kts | 287° |
| 2026-05-06 23:40 | 51.31642 | -107.92667 | 38003 ft | 399 kts | 286° |
| 2026-05-06 23:41 | 51.32542 | -108.01232 | 37997 ft | 397 kts | 286° |
| 2026-05-06 23:41 | 51.33452 | -108.09957 | 38004 ft | 397 kts | 286° |
| 2026-05-06 23:42 | 51.34353 | -108.18649 | 37988 ft | 396 kts | 286° |
| 2026-05-06 23:42 | 51.35248 | -108.27351 | 37994 ft | 396 kts | 286° |
| 2026-05-06 23:43 | 51.36129 | -108.35984 | 37993 ft | 396 kts | 286° |
| 2026-05-06 23:43 | 51.37011 | -108.44694 | 37999 ft | 396 kts | 285° |
| 2026-05-06 23:44 | 51.37886 | -108.53407 | 37982 ft | 396 kts | 285° |
| 2026-05-06 23:44 | 51.38754 | -108.62114 | 37979 ft | 396 kts | 285° |
| 2026-05-06 23:45 | 51.39619 | -108.70852 | 37990 ft | 397 kts | 285° |
| 2026-05-06 23:45 | 51.40477 | -108.79595 | 37965 ft | 398 kts | 285° |
| 2026-05-06 23:46 | 51.41323 | -108.88289 | 37945 ft | 399 kts | 285° |
| 2026-05-06 23:46 | 51.42173 | -108.97088 | 37931 ft | 399 kts | 285° |
| 2026-05-06 23:47 | 51.43001 | -109.05741 | 37925 ft | 399 kts | 285° |
| 2026-05-06 23:47 | 51.43839 | -109.14554 | 37917 ft | 400 kts | 284° |
| 2026-05-06 23:48 | 51.44670 | -109.23372 | 37918 ft | 400 kts | 284° |
| 2026-05-06 23:48 | 51.45490 | -109.32156 | 37922 ft | 401 kts | 284° |
| 2026-05-06 23:49 | 51.46310 | -109.41003 | 37927 ft | 401 kts | 284° |
| 2026-05-06 23:49 | 51.47123 | -109.49853 | 37935 ft | 401 kts | 284° |
| 2026-05-06 23:50 | 51.47928 | -109.58686 | 37906 ft | 400 kts | 284° |
| 2026-05-06 23:50 | 51.49117 | -109.71881 | 37955 ft | 400 kts | 284° |
| 2026-05-06 23:51 | 51.49905 | -109.80720 | 37950 ft | 400 kts | 283° |
| 2026-05-06 23:51 | 51.50687 | -109.89561 | 37947 ft | 400 kts | 283° |
| 2026-05-06 23:52 | 51.51462 | -109.98407 | 37950 ft | 400 kts | 283° |
| 2026-05-06 23:52 | 51.52121 | -110.07072 | 37937 ft | 401 kts | 281° |
| 2026-05-06 23:53 | 51.52682 | -110.15983 | 37932 ft | 401 kts | 280° |
| 2026-05-06 23:53 | 51.53235 | -110.24899 | 37935 ft | 401 kts | 281° |
| 2026-05-06 23:54 | 51.53796 | -110.33827 | 37941 ft | 402 kts | 281° |
| 2026-05-06 23:54 | 51.54359 | -110.42784 | 37939 ft | 403 kts | 281° |
| 2026-05-06 23:55 | 51.54919 | -110.51774 | 37940 ft | 404 kts | 280° |
| 2026-05-06 23:55 | 51.55472 | -110.60768 | 37933 ft | 405 kts | 280° |
| 2026-05-06 23:56 | 51.56014 | -110.69728 | 37923 ft | 405 kts | 279° |
| 2026-05-06 23:56 | 51.56556 | -110.78752 | 37928 ft | 406 kts | 279° |
| 2026-05-06 23:57 | 51.57091 | -110.87791 | 37938 ft | 407 kts | 279° |
| 2026-05-06 23:57 | 51.57620 | -110.96853 | 37937 ft | 406 kts | 279° |
| 2026-05-06 23:58 | 51.57865 | -111.01139 | 37914 ft | 394 kts | 279° |
| 2026-05-06 23:58 | 51.58109 | -111.05448 | 37919 ft | 380 kts | 279° |
| 2026-05-06 23:58 | 51.58343 | -111.09614 | 37909 ft | 367 kts | 279° |
| 2026-05-06 23:58 | 51.58568 | -111.13638 | 37908 ft | 354 kts | 280° |
| 2026-05-06 23:59 | 51.59016 | -111.21530 | 37925 ft | 359 kts | 279° |
| 2026-05-06 23:59 | 51.59472 | -111.29585 | 37940 ft | 370 kts | 279° |
| 2026-05-07 00:00 | 51.59932 | -111.37912 | 37937 ft | 378 kts | 279° |
| 2026-05-07 00:00 | 51.60311 | -111.44939 | 37935 ft | 380 kts | 278° |
| 2026-05-07 00:01 | 51.60828 | -111.54718 | 37909 ft | 369 kts | 278° |
| 2026-05-07 00:01 | 51.61261 | -111.62945 | 37929 ft | 369 kts | 278° |
| 2026-05-07 00:02 | 51.61690 | -111.71188 | 37927 ft | 370 kts | 278° |
| 2026-05-07 00:02 | 51.61905 | -111.75345 | 37607 ft | 378 kts | 278° |
| 2026-05-07 00:02 | 51.62126 | -111.79639 | 36861 ft | 389 kts | 278° |
| 2026-05-07 00:03 | 51.62349 | -111.84013 | 36040 ft | 395 kts | 277° |
| 2026-05-07 00:03 | 51.62570 | -111.88396 | 35376 ft | 399 kts | 277° |
| 2026-05-07 00:03 | 51.62791 | -111.92850 | 34905 ft | 398 kts | 277° |
| 2026-05-07 00:03 | 51.63008 | -111.97280 | 34543 ft | 394 kts | 277° |
| 2026-05-07 00:04 | 51.63213 | -112.01486 | 34211 ft | 390 kts | 277° |
| 2026-05-07 00:04 | 51.63424 | -112.05820 | 33819 ft | 387 kts | 277° |
| 2026-05-07 00:04 | 51.63633 | -112.10141 | 33376 ft | 385 kts | 277° |
| 2026-05-07 00:04 | 51.63838 | -112.14426 | 32946 ft | 383 kts | 277° |
| 2026-05-07 00:05 | 51.64038 | -112.18617 | 32554 ft | 379 kts | 277° |
| 2026-05-07 00:05 | 51.64238 | -112.22842 | 32174 ft | 376 kts | 277° |
| 2026-05-07 00:05 | 51.64434 | -112.27011 | 31799 ft | 373 kts | 277° |
| 2026-05-07 00:05 | 51.64629 | -112.31164 | 31404 ft | 370 kts | 277° |
| 2026-05-07 00:06 | 51.64820 | -112.35287 | 31052 ft | 367 kts | 277° |
| 2026-05-07 00:06 | 51.65008 | -112.39366 | 30692 ft | 364 kts | 277° |
| 2026-05-07 00:06 | 51.65105 | -112.43418 | 30342 ft | 363 kts | 270° |
| 2026-05-07 00:06 | 51.64869 | -112.47453 | 30004 ft | 362 kts | 263° |
| 2026-05-07 00:07 | 51.64198 | -112.51365 | 29620 ft | 364 kts | 255° |
| 2026-05-07 00:07 | 51.63331 | -112.55180 | 29211 ft | 361 kts | 254° |
| 2026-05-07 00:07 | 51.62462 | -112.58962 | 28743 ft | 359 kts | 255° |
| 2026-05-07 00:07 | 51.61618 | -112.62737 | 28310 ft | 357 kts | 255° |
| 2026-05-07 00:08 | 51.60805 | -112.66435 | 27899 ft | 354 kts | 255° |
| 2026-05-07 00:08 | 51.59991 | -112.70164 | 27491 ft | 352 kts | 255° |
| 2026-05-07 00:08 | 51.59184 | -112.73867 | 27103 ft | 349 kts | 255° |
| 2026-05-07 00:08 | 51.58382 | -112.77544 | 26695 ft | 347 kts | 255° |
| 2026-05-07 00:09 | 51.57584 | -112.81187 | 26341 ft | 344 kts | 255° |
| 2026-05-07 00:09 | 51.56791 | -112.84796 | 25959 ft | 342 kts | 255° |
| 2026-05-07 00:09 | 51.56004 | -112.88382 | 25590 ft | 340 kts | 255° |
| 2026-05-07 00:09 | 51.55219 | -112.91956 | 25209 ft | 338 kts | 255° |
| 2026-05-07 00:10 | 51.54439 | -112.95507 | 24869 ft | 336 kts | 255° |
| 2026-05-07 00:10 | 51.53664 | -112.99031 | 24513 ft | 334 kts | 255° |
| 2026-05-07 00:10 | 51.52922 | -113.02396 | 24191 ft | 332 kts | 255° |
| 2026-05-07 00:10 | 51.52153 | -113.05872 | 23848 ft | 330 kts | 255° |
| 2026-05-07 00:11 | 51.51387 | -113.09338 | 23498 ft | 328 kts | 255° |
| 2026-05-07 00:11 | 51.50626 | -113.12773 | 23116 ft | 326 kts | 255° |
| 2026-05-07 00:11 | 51.49878 | -113.16154 | 22725 ft | 324 kts | 255° |
| 2026-05-07 00:11 | 51.49123 | -113.19552 | 22328 ft | 322 kts | 254° |
| 2026-05-07 00:12 | 51.48367 | -113.22948 | 21838 ft | 324 kts | 254° |
| 2026-05-07 00:12 | 51.47532 | -113.26309 | 21445 ft | 325 kts | 246° |
| 2026-05-07 00:12 | 51.46213 | -113.29295 | 21098 ft | 328 kts | 235° |
| 2026-05-07 00:12 | 51.44745 | -113.32083 | 20761 ft | 326 kts | 234° |
| 2026-05-07 00:13 | 51.43272 | -113.34853 | 20395 ft | 325 kts | 234° |
| 2026-05-07 00:13 | 51.41812 | -113.37611 | 20028 ft | 324 kts | 234° |
| 2026-05-07 00:13 | 51.40380 | -113.40330 | 19690 ft | 322 kts | 235° |
| 2026-05-07 00:13 | 51.38940 | -113.43077 | 19357 ft | 321 kts | 235° |
| 2026-05-07 00:14 | 51.37512 | -113.45809 | 19023 ft | 319 kts | 235° |
| 2026-05-07 00:14 | 51.36089 | -113.48534 | 18693 ft | 318 kts | 235° |
| 2026-05-07 00:14 | 51.34675 | -113.51241 | 18361 ft | 317 kts | 235° |
| 2026-05-07 00:14 | 51.33266 | -113.53939 | 18053 ft | 315 kts | 235° |
| 2026-05-07 00:15 | 51.31867 | -113.56614 | 17735 ft | 312 kts | 235° |
| 2026-05-07 00:15 | 51.30473 | -113.59274 | 17334 ft | 312 kts | 235° |
| 2026-05-07 00:15 | 51.29078 | -113.61933 | 16980 ft | 311 kts | 235° |
| 2026-05-07 00:15 | 51.27502 | -113.64261 | 16621 ft | 318 kts | 218° |
| 2026-05-07 00:16 | 51.25473 | -113.65752 | 15920 ft | 330 kts | 204° |
| 2026-05-07 00:16 | 51.23226 | -113.66842 | 14922 ft | 343 kts | 200° |
| 2026-05-07 00:16 | 51.20896 | -113.67861 | 13968 ft | 350 kts | 200° |
| 2026-05-07 00:16 | 51.18534 | -113.68889 | 12952 ft | 355 kts | 199° |
| 2026-05-07 00:17 | 51.16145 | -113.69951 | 11917 ft | 357 kts | 199° |
| 2026-05-07 00:17 | 51.13751 | -113.71038 | 10968 ft | 357 kts | 199° |
| 2026-05-07 00:17 | 51.11383 | -113.72126 | 10155 ft | 349 kts | 199° |
| 2026-05-07 00:17 | 51.09101 | -113.73181 | 9281 ft | 335 kts | 199° |
| 2026-05-07 00:18 | 51.06903 | -113.74197 | 8406 ft | 323 kts | 198° |
| 2026-05-07 00:18 | 51.05476 | -113.74925 | 7817 ft | 314 kts | 204° |
| 2026-05-07 00:18 | 51.03821 | -113.76940 | 7008 ft | 300 kts | 237° |
| 2026-05-07 00:18 | 51.03207 | -113.79892 | 6760 ft | 271 kts | 272° |
| 2026-05-07 00:19 | 51.03738 | -113.82514 | 6605 ft | 244 kts | 309° |
| 2026-05-07 00:19 | 51.04893 | -113.84302 | 6515 ft | 221 kts | 315° |
| 2026-05-07 00:19 | 51.05913 | -113.86171 | 5824 ft | 229 kts | 308° |
| 2026-05-07 00:19 | 51.04756 | -113.83922 | 5558 ft | 1982 kts | 316° |
| 2026-05-07 00:20 | 51.03948 | -113.80473 | 5757 ft | 181 kts | 313° |
| 2026-05-07 00:20 | 51.04637 | -113.81852 | 6106 ft | 146 kts | 308° |
| 2026-05-07 00:20 | 51.05279 | -113.83321 | 6080 ft | 190 kts | 303° |
| 2026-05-07 00:20 | 51.05410 | -113.83658 | 6026 ft | 199 kts | 302° |
| 2026-05-07 00:21 | 51.05988 | -113.85228 | 5761 ft | 208 kts | 301° |
| 2026-05-07 00:21 | 51.06696 | -113.87201 | 5482 ft | 201 kts | 302° |
| 2026-05-07 00:22 | 51.07383 | -113.89097 | 5201 ft | 194 kts | 301° |
| 2026-05-07 00:22 | 51.08048 | -113.90931 | 4941 ft | 189 kts | 302° |
| 2026-05-07 00:22 | 51.08682 | -113.92682 | 4731 ft | 189 kts | 302° |
| 2026-05-07 00:22 | 51.09348 | -113.94510 | 4472 ft | 194 kts | 303° |
| 2026-05-07 00:23 | 51.10012 | -113.96343 | 4209 ft | 192 kts | 303° |
| 2026-05-07 00:23 | 51.10679 | -113.98180 | 3945 ft | 188 kts | 303° |
| 2026-05-07 00:23 | 51.11323 | -113.99948 | 3722 ft | 185 kts | 302° |
| 2026-05-07 00:23 | 51.11937 | -114.01633 | 3567 ft | 184 kts | 301° |
| 2026-05-07 00:24 | 51.12442 | -114.03012 | 3559 ft | 71 kts | 300° |
| 2026-05-07 00:24 | 51.12545 | -114.03294 | 3560 ft | 23 kts | 300° |
| 2026-05-07 00:24 | 51.12625 | -114.03515 | 3558 ft | 24 kts | 299° |
| 2026-05-07 00:24 | 51.12735 | -114.03709 | 3558 ft | 24 kts | 343° |
| 2026-05-07 00:25 | 51.12860 | -114.03609 | 3556 ft | 23 kts | 56° |
| 2026-05-07 00:25 | 51.12936 | -114.03495 | 3556 ft | 12 kts | 54° |
| 2026-05-07 00:25 | 51.12912 | -114.03375 | 3558 ft | 14 kts | 121° |
| 2026-05-07 00:25 | 51.12860 | -114.03236 | 3558 ft | 16 kts | 121° |
| 2026-05-07 00:26 | 51.12768 | -114.03161 | 3558 ft | 18 kts | 188° |
| 2026-05-07 00:26 | 51.12683 | -114.03028 | 3558 ft | 19 kts | 120° |
| 2026-05-07 00:26 | 51.12614 | -114.02828 | 3556 ft | 22 kts | 109° |
| 2026-05-07 00:26 | 51.12603 | -114.02580 | 3558 ft | 24 kts | 89° |
| 2026-05-07 00:27 | 51.12604 | -114.02311 | 3558 ft | 26 kts | 90° |
| 2026-05-07 00:27 | 51.12604 | -114.02013 | 3557 ft | 27 kts | 90° |
| 2026-05-07 00:27 | 51.12604 | -114.01744 | 3558 ft | 23 kts | 90° |
| 2026-05-07 00:27 | 51.12603 | -114.01495 | 3558 ft | 22 kts | 89° |
| 2026-05-07 00:28 | 51.12603 | -114.01253 | 3558 ft | 22 kts | 90° |
| 2026-05-07 00:28 | 51.12614 | -114.01018 | 3558 ft | 21 kts | 86° |
| 2026-05-07 00:28 | 51.12613 | -114.00792 | 3558 ft | 20 kts | 90° |
| 2026-05-07 00:28 | 51.12657 | -114.00643 | 3555 ft | 16 kts | 7° |
| 2026-05-07 00:29 | 51.12761 | -114.00641 | 3558 ft | 15 kts | 0° |
| 2026-05-07 00:29 | 51.12861 | -114.00643 | 3555 ft | 12 kts | 0° |
| 2026-05-07 00:30 | 51.12902 | -114.00755 | 3558 ft | 0 kts | 275° |